Laguna — WDF4470 — position and weather

sailwx.info

Track history (hours):
 
Tides and Currents Weather Stations Pressure Air Temp Water Temp Dewpoint Dewpoint Depression Visibility Wind Speed Wind Dir Waves Ship Positions

Laguna

Owner: GP RESOURCES INC., TERMINAL ISLAND, CA. More information available from US FCC via Universal Licensing System and Coast Guard Vessel Documentation Center.

Last reported at 2017-Sep-26 21:30 UTC. Time now 2017-Sep-26 21:52 UTC.
Position N 33°44' W 118°13'.

Length 15 m; draft 2.5 m.

MMSI: 367452280.

Date/timePositionNaut miles runAvg speedWind from/ knotsBaromVisibWave heightAir tempDewpointWater temp
2017-Sep-26 21:30N 33°44' W 118°13'0 0.0
2017-Sep-26 21:00N 33°44' W 118°13'0 0.0
2017-Sep-26 20:30N 33°44' W 118°13'0 0.0
2017-Sep-26 20:00N 33°44' W 118°13'0 0.0
2017-Sep-26 19:31N 33°44' W 118°13'0 0.0
2017-Sep-26 19:00N 33°44' W 118°13'0 0.0
2017-Sep-26 18:30N 33°44' W 118°13'0 0.0
2017-Sep-26 18:01N 33°44' W 118°13'2 3.7
2017-Sep-26 17:31N 33°46' W 118°14'0 0.2
2017-Sep-26 17:00N 33°46' W 118°14'0 0.0
2017-Sep-26 16:30N 33°46' W 118°14'0 0.0
2017-Sep-26 16:00N 33°46' W 118°14'0 0.0
2017-Sep-26 15:30N 33°46' W 118°14'0 0.0
2017-Sep-26 15:00N 33°46' W 118°14'1 2.1
2017-Sep-26 14:30N 33°45' W 118°13'2 4.6
2017-Sep-26 14:00N 33°43' W 118°14'2 4.1
2017-Sep-26 13:30N 33°44' W 118°16'0 0.5
2017-Sep-26 13:00N 33°44' W 118°16'0 0.0
2017-Sep-26 12:31N 33°44' W 118°16'0 0.0
2017-Sep-26 12:00N 33°44' W 118°16'0 0.0
2017-Sep-26 11:30N 33°44' W 118°16'0 0.0
2017-Sep-26 11:00N 33°44' W 118°16'0 0.0
2017-Sep-26 10:31N 33°44' W 118°16'0 0.0
2017-Sep-26 10:00N 33°44' W 118°16'0 0.0
2017-Sep-26 09:30N 33°44' W 118°16'0 0.0
2017-Sep-26 09:00N 33°44' W 118°16'0 0.0
2017-Sep-26 08:31N 33°44' W 118°16'0 0.0
2017-Sep-26 08:00N 33°44' W 118°16'0 0.0
2017-Sep-26 07:30N 33°44' W 118°16'0 0.0
2017-Sep-26 07:00N 33°44' W 118°16'0 0.0
2017-Sep-26 06:30N 33°44' W 118°16'0 0.0
2017-Sep-26 06:00N 33°44' W 118°16'0 0.3
2017-Sep-26 05:30N 33°44' W 118°16'2 3.9
2017-Sep-26 05:00N 33°43' W 118°14'3 5.2
2017-Sep-26 04:29N 33°44' W 118°11'1 2.7
2017-Sep-26 03:59N 33°44' W 118°09'0 0.0
2017-Sep-26 03:30N 33°44' W 118°09'0 0.0
2017-Sep-26 03:01N 33°44' W 118°09'0 0.0
2017-Sep-26 02:30N 33°44' W 118°09'2 4.5
2017-Sep-26 02:01N 33°44' W 118°12'3 6.0
2017-Sep-26 01:30N 33°43' W 118°15'1 0.2
2017-Sep-25 18:55N 33°44' W 118°16'0 0.0
2017-Sep-25 18:30N 33°44' W 118°16'0 0.0
2017-Sep-25 18:00N 33°44' W 118°16'0 0.0
2017-Sep-25 17:30N 33°44' W 118°16'0 0.0
2017-Sep-25 17:00N 33°44' W 118°16'0 0.0
2017-Sep-25 16:30N 33°44' W 118°16'0 0.0
2017-Sep-25 16:00N 33°44' W 118°16'0 0.0
2017-Sep-25 15:30N 33°44' W 118°16'0 0.0
2017-Sep-25 15:00N 33°44' W 118°16'0 0.0
2017-Sep-25 14:30N 33°44' W 118°16'0 0.0
2017-Sep-25 14:00N 33°44' W 118°16'0 0.0
2017-Sep-25 02:49N 33°44' W 118°16'0 0.2
2017-Sep-25 02:30N 33°44' W 118°16'0 0.0
2017-Sep-25 02:00N 33°44' W 118°16'0 0.0
2017-Sep-25 01:30N 33°44' W 118°16'  
2017-Sep-21 10:29N 33°44' W 118°16'2 3.0
2017-Sep-21 09:59N 33°43' W 118°15'3 5.5
2017-Sep-21 09:30N 33°44' W 118°12'1 1.6
2017-Sep-21 08:38N 33°44' W 118°10'0 0.1
2017-Sep-21 08:30N 33°44' W 118°10'0 0.2
2017-Sep-21 07:59N 33°44' W 118°10'0 0.1
2017-Sep-21 06:30N 33°44' W 118°10'0 0.1
2017-Sep-21 06:00N 33°44' W 118°10'0 0.0
2017-Sep-21 05:30N 33°44' W 118°10'0 0.1
2017-Sep-21 04:59N 33°44' W 118°10'0 0.4
2017-Sep-21 04:30N 33°44' W 118°10'3 5.9
2017-Sep-21 04:00N 33°43' W 118°14'2 4.3
2017-Sep-21 03:29N 33°44' W 118°16'0 0.1
2017-Sep-21 03:00N 33°44' W 118°16'0 0.1
2017-Sep-21 02:30N 33°44' W 118°16'0 0.6
2017-Sep-21 02:00N 33°44' W 118°16'0 0.0
2017-Sep-21 01:30N 33°44' W 118°16'0 0.0
2017-Sep-21 01:00N 33°44' W 118°16'0 0.0
2017-Sep-21 00:30N 33°44' W 118°16'0 0.0
2017-Sep-21 00:00N 33°44' W 118°16'0 0.0
2017-Sep-20 23:30N 33°44' W 118°16'0 0.0
2017-Sep-20 23:00N 33°44' W 118°16'0 0.0
2017-Sep-20 22:30N 33°44' W 118°16'0 0.0
2017-Sep-20 22:00N 33°44' W 118°16'0 0.0
2017-Sep-20 21:30N 33°44' W 118°16'0 0.5
2017-Sep-20 21:00N 33°44' W 118°16'0 0.0
2017-Sep-20 20:30N 33°44' W 118°16'0 0.0
2017-Sep-20 20:00N 33°44' W 118°16'0 0.0
2017-Sep-20 19:30N 33°44' W 118°16'0 0.0
2017-Sep-20 13:24N 33°44' W 118°16'0 0.0
2017-Sep-19 20:58N 33°44' W 118°16'0 0.0
2017-Sep-19 20:31N 33°44' W 118°16'0 0.0
2017-Sep-18 23:08N 33°44' W 118°16'0 0.0
2017-Sep-18 23:00N 33°44' W 118°16'0 0.0
2017-Sep-18 22:30N 33°44' W 118°16'0 0.0
2017-Sep-18 22:00N 33°44' W 118°16'0 0.0
2017-Sep-18 21:30N 33°44' W 118°16'0 0.0
2017-Sep-18 21:00N 33°44' W 118°16'0 0.0
2017-Sep-18 20:28N 33°44' W 118°16'  
Track history (hours):
 
Tides and Currents Weather Stations Pressure Air Temp Water Temp Dewpoint Dewpoint Depression Visibility Wind Speed Wind Dir Waves Ship Positions

Laguna

Owner: GP RESOURCES INC., TERMINAL ISLAND, CA. More information available from US FCC via Universal Licensing System and Coast Guard Vessel Documentation Center.

Last reported at 2017-Sep-26 21:30 UTC. Time now 2017-Sep-26 21:52 UTC.
Position N 33°44' W 118°13'.

Length 15 m; draft 2.5 m.

MMSI: 367452280.

Date/timePositionNaut miles runAvg speedWind from/ knotsBaromVisibWave heightAir tempDewpointWater temp
2017-Sep-26 21:30N 33°44' W 118°13'0 0.0
2017-Sep-26 21:00N 33°44' W 118°13'0 0.0
2017-Sep-26 20:30N 33°44' W 118°13'0 0.0
2017-Sep-26 20:00N 33°44' W 118°13'0 0.0
2017-Sep-26 19:31N 33°44' W 118°13'0 0.0
2017-Sep-26 19:00N 33°44' W 118°13'0 0.0
2017-Sep-26 18:30N 33°44' W 118°13'0 0.0
2017-Sep-26 18:01N 33°44' W 118°13'2 3.7
2017-Sep-26 17:31N 33°46' W 118°14'0 0.2
2017-Sep-26 17:00N 33°46' W 118°14'0 0.0
2017-Sep-26 16:30N 33°46' W 118°14'0 0.0
2017-Sep-26 16:00N 33°46' W 118°14'0 0.0
2017-Sep-26 15:30N 33°46' W 118°14'0 0.0
2017-Sep-26 15:00N 33°46' W 118°14'1 2.1
2017-Sep-26 14:30N 33°45' W 118°13'2 4.6
2017-Sep-26 14:00N 33°43' W 118°14'2 4.1
2017-Sep-26 13:30N 33°44' W 118°16'0 0.5
2017-Sep-26 13:00N 33°44' W 118°16'0 0.0
2017-Sep-26 12:31N 33°44' W 118°16'0 0.0
2017-Sep-26 12:00N 33°44' W 118°16'0 0.0
2017-Sep-26 11:30N 33°44' W 118°16'0 0.0
2017-Sep-26 11:00N 33°44' W 118°16'0 0.0
2017-Sep-26 10:31N 33°44' W 118°16'0 0.0
2017-Sep-26 10:00N 33°44' W 118°16'0 0.0
2017-Sep-26 09:30N 33°44' W 118°16'0 0.0
2017-Sep-26 09:00N 33°44' W 118°16'0 0.0
2017-Sep-26 08:31N 33°44' W 118°16'0 0.0
2017-Sep-26 08:00N 33°44' W 118°16'0 0.0
2017-Sep-26 07:30N 33°44' W 118°16'0 0.0
2017-Sep-26 07:00N 33°44' W 118°16'0 0.0
2017-Sep-26 06:30N 33°44' W 118°16'0 0.0
2017-Sep-26 06:00N 33°44' W 118°16'0 0.3
2017-Sep-26 05:30N 33°44' W 118°16'2 3.9
2017-Sep-26 05:00N 33°43' W 118°14'3 5.2
2017-Sep-26 04:29N 33°44' W 118°11'1 2.7
2017-Sep-26 03:59N 33°44' W 118°09'0 0.0
2017-Sep-26 03:30N 33°44' W 118°09'0 0.0
2017-Sep-26 03:01N 33°44' W 118°09'0 0.0
2017-Sep-26 02:30N 33°44' W 118°09'2 4.5
2017-Sep-26 02:01N 33°44' W 118°12'3 6.0
2017-Sep-26 01:30N 33°43' W 118°15'1 0.2
2017-Sep-25 18:55N 33°44' W 118°16'0 0.0
2017-Sep-25 18:30N 33°44' W 118°16'0 0.0
2017-Sep-25 18:00N 33°44' W 118°16'0 0.0
2017-Sep-25 17:30N 33°44' W 118°16'0 0.0
2017-Sep-25 17:00N 33°44' W 118°16'0 0.0
2017-Sep-25 16:30N 33°44' W 118°16'0 0.0
2017-Sep-25 16:00N 33°44' W 118°16'0 0.0
2017-Sep-25 15:30N 33°44' W 118°16'0 0.0
2017-Sep-25 15:00N 33°44' W 118°16'0 0.0
2017-Sep-25 14:30N 33°44' W 118°16'0 0.0
2017-Sep-25 14:00N 33°44' W 118°16'0 0.0
2017-Sep-25 02:49N 33°44' W 118°16'0 0.2
2017-Sep-25 02:30N 33°44' W 118°16'0 0.0
2017-Sep-25 02:00N 33°44' W 118°16'0 0.0
2017-Sep-25 01:30N 33°44' W 118°16'  
2017-Sep-21 10:29N 33°44' W 118°16'2 3.0
2017-Sep-21 09:59N 33°43' W 118°15'3 5.5
2017-Sep-21 09:30N 33°44' W 118°12'1 1.6
2017-Sep-21 08:38N 33°44' W 118°10'0 0.1
2017-Sep-21 08:30N 33°44' W 118°10'0 0.2
2017-Sep-21 07:59N 33°44' W 118°10'0 0.1
2017-Sep-21 06:30N 33°44' W 118°10'0 0.1
2017-Sep-21 06:00N 33°44' W 118°10'0 0.0
2017-Sep-21 05:30N 33°44' W 118°10'0 0.1
2017-Sep-21 04:59N 33°44' W 118°10'0 0.4
2017-Sep-21 04:30N 33°44' W 118°10'3 5.9
2017-Sep-21 04:00N 33°43' W 118°14'2 4.3
2017-Sep-21 03:29N 33°44' W 118°16'0 0.1
2017-Sep-21 03:00N 33°44' W 118°16'0 0.1
2017-Sep-21 02:30N 33°44' W 118°16'0 0.6
2017-Sep-21 02:00N 33°44' W 118°16'0 0.0
2017-Sep-21 01:30N 33°44' W 118°16'0 0.0
2017-Sep-21 01:00N 33°44' W 118°16'0 0.0
2017-Sep-21 00:30N 33°44' W 118°16'0 0.0
2017-Sep-21 00:00N 33°44' W 118°16'0 0.0
2017-Sep-20 23:30N 33°44' W 118°16'0 0.0
2017-Sep-20 23:00N 33°44' W 118°16'0 0.0
2017-Sep-20 22:30N 33°44' W 118°16'0 0.0
2017-Sep-20 22:00N 33°44' W 118°16'0 0.0
2017-Sep-20 21:30N 33°44' W 118°16'0 0.5
2017-Sep-20 21:00N 33°44' W 118°16'0 0.0
2017-Sep-20 20:30N 33°44' W 118°16'0 0.0
2017-Sep-20 20:00N 33°44' W 118°16'0 0.0
2017-Sep-20 19:30N 33°44' W 118°16'0 0.0
2017-Sep-20 13:24N 33°44' W 118°16'0 0.0
2017-Sep-19 20:58N 33°44' W 118°16'0 0.0
2017-Sep-19 20:31N 33°44' W 118°16'0 0.0
2017-Sep-18 23:08N 33°44' W 118°16'0 0.0
2017-Sep-18 23:00N 33°44' W 118°16'0 0.0
2017-Sep-18 22:30N 33°44' W 118°16'0 0.0
2017-Sep-18 22:00N 33°44' W 118°16'0 0.0
2017-Sep-18 21:30N 33°44' W 118°16'0 0.0
2017-Sep-18 21:00N 33°44' W 118°16'0 0.0
2017-Sep-18 20:28N 33°44' W 118°16'  

Dump ship's entire track history